Eugene, OR (97408)

11:33 AM PDT on August 29, 2016 (GMT -0700)
Cal Young | | Change Station

Elev 423 ft 44.07 °N, 123.10 °W | Updated 4 minutes ago

Scattered Clouds
Scattered Clouds
74.5 °F
Feels Like 77 °F
N
1.9
Wind Variable Wind from SW
Gusts 5.0 mph

Today
High -- | Low -- °F
--% Chance of Precip.
Yesterday
High -- | Low -- °F
Precip. -- in
Pressure 30.07 in
Visibility 10.0 miles
Clouds Few 1500 ft
Scattered Clouds 15000 ft
Heat Index 77 °F
Dew Point 59 °F
Humidity 58%
Rainfall 0.00 in
Snow Depth Not available.
6:32 AM 7:52 PM
Waning Crescent, 7% visible
METAR KEUG 291754Z VRB04KT 10SM FEW015 SCT150 19/11 A3007 RMK AO2 SLP182 T01890106 10189 20111 58008
Pressure 30.07 in
Visibility 10.0 miles
Clouds Few 1500 ft
Scattered Clouds 15000 ft
Heat Index 77 °F
Dew Point 59 °F
Humidity 58%
Rainfall 0.00 in
Snow Depth Not available.
6:32 AM 7:52 PM
Waning Crescent, 7% visible
METAR KEUG 291754Z VRB04KT 10SM FEW015 SCT150 19/11 A3007 RMK AO2 SLP182 T01890106 10189 20111 58008

10-Day Weather Forecast

Almanac

Astronomy

Aug. 29, 2016 Rise Set
Actual Time
Civil Twilight
Nautical Twilight
Astronomical Twilight
Moon
Length of Visible Light
Length of Day
Tomorrow will be .
, % of the Moon is Illuminated

Today's Extremes

State Highs State Lows

Community

WunderPhotos

Upload Photos

1,935,685 photos uploaded!

WunderBlog® & News

Nearby

Air Quality

  Air Quality AQ Index Pollutant
Not available.

Snow Depth

Station Depth Elevation

Earthquake Activity

City Distance Mag. Time & Date
Minimum magnitude displayed is 2.5.

Coastal Water Temperatures

Place Temperature

Stations

Nearby Weather Stations

Station Location Temp. Windchill Dew Point Humidity Wind Precip. Elev Updated Type
                   

Watches & Warnings

There are currently no watches in effect.